createdAt,value
2023-01-29T00:03:51.972Z,3.40
2023-01-29T00:08:53.775Z,3.60
2023-01-29T00:13:55.957Z,3.40
2023-01-29T00:18:57.745Z,3.50
2023-01-29T00:23:59.924Z,3.40
2023-01-29T00:29:02.651Z,3.60
2023-01-29T00:34:04.375Z,3.50
2023-01-29T00:39:10.631Z,3.50
2023-01-29T00:44:31.567Z,3.50
2023-01-29T00:49:33.245Z,3.40
2023-01-29T00:54:35.634Z,3.50
2023-01-29T00:59:37.716Z,3.60
2023-01-29T01:04:39.405Z,3.40
2023-01-29T01:10:00.030Z,3.40
2023-01-29T01:15:01.722Z,3.30
2023-01-29T01:20:04.274Z,3.30
2023-01-29T01:25:06.297Z,3.20
2023-01-29T01:30:11.330Z,3.30
2023-01-29T01:35:14.845Z,3.30
2023-01-29T01:40:19.837Z,3.30
2023-01-29T01:45:31.144Z,3.20
2023-01-29T01:50:58.712Z,3.30
2023-01-29T01:56:05.477Z,3.10
2023-01-29T02:01:09.176Z,3.00
2023-01-29T02:06:29.920Z,3.00
2023-01-29T02:11:31.796Z,2.80
2023-01-29T02:16:35.944Z,2.90
2023-01-29T02:22:02.478Z,2.80
2023-01-29T02:27:40.516Z,2.70
2023-01-29T02:32:54.382Z,2.60
2023-01-29T02:38:10.731Z,2.50
2023-01-29T02:43:45.604Z,2.40
2023-01-29T02:49:00.145Z,2.30
2023-01-29T02:54:08.591Z,2.00
2023-01-29T02:59:17.258Z,2.00
2023-01-29T03:04:25.456Z,1.80
2023-01-29T03:09:34.408Z,1.80
2023-01-29T03:14:58.768Z,1.50
2023-01-29T03:20:01.407Z,1.60
2023-01-29T03:25:23.550Z,1.80
2023-01-29T03:30:46.424Z,1.80
2023-01-29T03:36:00.767Z,1.80
2023-01-29T03:41:05.780Z,1.60
2023-01-29T03:46:18.940Z,1.60
2023-01-29T03:51:35.242Z,1.50
2023-01-29T03:57:22.372Z,1.30
2023-01-29T04:02:30.552Z,1.10
2023-01-29T04:07:33.517Z,1.10
2023-01-29T04:12:45.615Z,1.10
2023-01-29T04:17:52.692Z,1.30
2023-01-29T04:22:54.420Z,1.30
2023-01-29T04:28:10.521Z,1.50
2023-01-29T04:33:18.707Z,1.30
2023-01-29T04:38:43.339Z,1.20
2023-01-29T04:43:58.233Z,1.10
2023-01-29T04:49:25.659Z,0.80
2023-01-29T04:55:07.995Z,1.00
2023-01-29T05:00:13.440Z,1.10
2023-01-29T05:05:17.905Z,1.10
2023-01-29T05:10:22.684Z,1.10
2023-01-29T05:15:38.261Z,1.10
2023-01-29T05:20:43.177Z,1.00
2023-01-29T05:25:46.412Z,1.00
2023-01-29T05:30:50.887Z,1.00
2023-01-29T05:35:52.712Z,1.10
2023-01-29T05:40:54.808Z,1.10
2023-01-29T05:45:58.983Z,1.00
2023-01-29T05:51:05.217Z,0.90
2023-01-29T05:56:07.167Z,0.70
2023-01-29T06:01:17.370Z,0.70
2023-01-29T06:06:19.052Z,0.60
2023-01-29T06:11:21.606Z,0.40
2023-01-29T06:16:23.298Z,-0.10
2023-01-29T06:21:25.056Z,-0.20
2023-01-29T06:26:26.916Z,0.10
2023-01-29T06:31:38.439Z,-0.20
2023-01-29T06:36:41.791Z,-0.80
2023-01-29T06:41:45.305Z,-0.70
2023-01-29T06:46:46.964Z,-0.70
2023-01-29T06:51:48.619Z,-0.40
2023-01-29T06:56:51.446Z,-0.10
2023-01-29T07:01:53.122Z,-0.30
2023-01-29T07:06:54.802Z,-0.60
2023-01-29T07:11:56.473Z,-0.60
2023-01-29T07:16:58.113Z,-0.50
2023-01-29T07:22:02.406Z,-0.50
2023-01-29T07:27:04.105Z,-0.60
2023-01-29T07:32:05.867Z,-0.50
2023-01-29T07:37:07.848Z,-0.40
2023-01-29T07:42:09.514Z,-0.10
2023-01-29T07:47:12.084Z,0.20
2023-01-29T07:52:13.742Z,-0.30
2023-01-29T07:57:15.401Z,0.00
2023-01-29T08:02:17.258Z,-0.20
2023-01-29T08:07:18.949Z,0.20
2023-01-29T08:12:20.593Z,0.30
2023-01-29T08:17:22.246Z,0.30
2023-01-29T08:22:23.963Z,0.80
2023-01-29T08:27:25.666Z,1.10
2023-01-29T08:32:27.382Z,1.30
2023-01-29T08:37:29.046Z,1.70
2023-01-29T08:42:30.698Z,1.80
2023-01-29T08:47:32.427Z,2.20
2023-01-29T08:52:34.083Z,2.50
2023-01-29T08:57:35.881Z,2.80
2023-01-29T09:02:38.254Z,2.70
2023-01-29T09:07:39.964Z,2.90
2023-01-29T09:12:41.606Z,2.60
2023-01-29T09:17:43.381Z,2.50
2023-01-29T09:22:45.634Z,2.90
2023-01-29T09:27:47.356Z,3.10
2023-01-29T09:32:53.529Z,3.40
2023-01-29T09:37:55.774Z,3.60
2023-01-29T09:43:09.397Z,3.70
2023-01-29T09:48:12.835Z,3.80
2023-01-29T09:53:23.167Z,3.90
2023-01-29T09:58:37.142Z,3.80
2023-01-29T10:03:54.195Z,4.00
2023-01-29T10:09:39.400Z,4.20
2023-01-29T10:15:19.738Z,5.50
2023-01-29T10:20:52.999Z,8.50
2023-01-29T10:25:56.189Z,9.90
2023-01-29T10:31:23.450Z,10.10
2023-01-29T10:36:46.978Z,9.30
2023-01-29T10:42:02.074Z,9.30
2023-01-29T10:47:12.156Z,10.50
2023-01-29T10:52:33.574Z,10.40
2023-01-29T10:57:47.264Z,10.00
2023-01-29T11:02:50.732Z,13.60
2023-01-29T11:08:13.368Z,16.50
2023-01-29T11:13:16.336Z,17.80
2023-01-29T11:18:18.075Z,17.60
2023-01-29T11:23:28.370Z,15.90
2023-01-29T11:28:50.614Z,14.30
2023-01-29T11:34:22.126Z,13.10
2023-01-29T11:39:25.573Z,14.60
2023-01-29T11:44:43.583Z,14.80
2023-01-29T11:49:48.763Z,14.70
2023-01-29T11:55:02.222Z,13.80
2023-01-29T12:00:20.455Z,13.40
2023-01-29T12:05:25.190Z,12.10
2023-01-29T12:10:38.164Z,11.80
2023-01-29T12:15:42.019Z,10.20
2023-01-29T12:20:48.403Z,10.00
2023-01-29T12:26:09.400Z,9.40
2023-01-29T12:31:29.081Z,9.90
2023-01-29T12:36:46.988Z,8.90
2023-01-29T12:42:04.294Z,9.90
2023-01-29T12:47:15.612Z,10.80
2023-01-29T12:52:30.163Z,11.70
2023-01-29T12:58:00.749Z,11.00
2023-01-29T13:03:08.081Z,10.30
2023-01-29T13:08:30.599Z,12.60
2023-01-29T13:13:54.584Z,15.00
2023-01-29T13:19:00.655Z,15.20
2023-01-29T13:24:12.985Z,17.00
2023-01-29T13:29:29.998Z,17.30
2023-01-29T13:34:35.267Z,16.50
2023-01-29T13:39:46.480Z,17.00
2023-01-29T13:44:54.106Z,16.60
2023-01-29T13:50:08.475Z,15.80
2023-01-29T13:55:22.320Z,15.30
2023-01-29T14:00:32.978Z,15.70
2023-01-29T14:05:37.603Z,14.60
2023-01-29T14:10:40.597Z,12.50
2023-01-29T14:15:42.255Z,11.10
2023-01-29T14:21:11.699Z,9.90
2023-01-29T14:26:45.237Z,9.20
2023-01-29T14:31:53.856Z,10.40
2023-01-29T14:36:58.659Z,10.30
2023-01-29T14:42:04.316Z,8.80
2023-01-29T14:47:06.133Z,7.60
2023-01-29T14:52:12.486Z,6.90
2023-01-29T14:57:17.674Z,6.30
2023-01-29T15:02:26.915Z,6.60
2023-01-29T15:07:32.469Z,6.50
2023-01-29T15:13:01.240Z,6.30
2023-01-29T15:18:12.018Z,6.10
2023-01-29T15:23:28.149Z,5.90
2023-01-29T15:28:32.131Z,6.00
2023-01-29T15:33:38.460Z,5.80
2023-01-29T15:38:40.122Z,5.70
2023-01-29T15:43:47.188Z,5.60
2023-01-29T15:48:50.064Z,5.20
2023-01-29T15:53:56.154Z,5.10
2023-01-29T15:59:00.853Z,5.10
2023-01-29T16:04:03.634Z,5.00
2023-01-29T16:09:07.174Z,5.20
2023-01-29T16:14:13.959Z,5.30
2023-01-29T16:19:28.199Z,5.30
2023-01-29T16:24:32.407Z,5.30
2023-01-29T16:29:35.355Z,5.10
2023-01-29T16:34:40.771Z,5.10
2023-01-29T16:39:47.605Z,5.00
2023-01-29T16:45:04.945Z,4.80
2023-01-29T16:50:40.503Z,4.60
2023-01-29T16:55:49.912Z,4.40
2023-01-29T17:01:11.181Z,4.30
2023-01-29T17:06:23.041Z,4.10
2023-01-29T17:11:37.585Z,3.90
2023-01-29T17:17:02.789Z,3.40
2023-01-29T17:22:07.676Z,3.40
2023-01-29T17:27:21.795Z,3.40
2023-01-29T17:32:25.109Z,3.30
2023-01-29T17:37:46.644Z,3.10
2023-01-29T17:42:48.352Z,3.00
2023-01-29T17:47:50.088Z,3.00
2023-01-29T17:52:52.643Z,2.60
2023-01-29T17:57:54.309Z,2.40
2023-01-29T18:02:55.978Z,2.30
2023-01-29T18:07:57.807Z,2.00
2023-01-29T18:12:59.471Z,1.80
2023-01-29T18:18:01.125Z,1.50
2023-01-29T18:23:06.104Z,1.40
2023-01-29T18:28:10.408Z,1.20
2023-01-29T18:33:12.082Z,0.90
2023-01-29T18:38:14.121Z,1.10
2023-01-29T18:43:16.230Z,1.00
2023-01-29T18:48:17.906Z,0.90
2023-01-29T18:53:19.544Z,1.20
2023-01-29T18:58:26.976Z,1.10
2023-01-29T19:03:42.050Z,1.10
2023-01-29T19:08:44.017Z,1.00
2023-01-29T19:13:47.899Z,0.90
2023-01-29T19:18:49.636Z,0.70
2023-01-29T19:23:51.501Z,0.60
2023-01-29T19:28:53.327Z,0.60
2023-01-29T19:33:55.055Z,0.90
2023-01-29T19:38:56.732Z,1.10
2023-01-29T19:43:58.377Z,1.10
2023-01-29T19:49:00.096Z,1.20
2023-01-29T19:54:02.462Z,1.20
2023-01-29T19:59:07.185Z,1.20
2023-01-29T20:04:08.931Z,1.10
2023-01-29T20:09:10.879Z,1.10
2023-01-29T20:14:12.846Z,0.90
2023-01-29T20:19:15.238Z,0.60
2023-01-29T20:24:17.037Z,0.40
2023-01-29T20:29:18.705Z,0.20
2023-01-29T20:34:20.370Z,0.10
2023-01-29T20:39:22.106Z,0.20
2023-01-29T20:44:24.635Z,0.40
2023-01-29T20:49:26.361Z,0.40
2023-01-29T20:54:29.896Z,0.70
2023-01-29T20:59:32.082Z,0.80
2023-01-29T21:04:33.736Z,0.80
2023-01-29T21:09:35.444Z,0.80
2023-01-29T21:14:37.265Z,0.80
2023-01-29T21:19:38.991Z,0.70
2023-01-29T21:24:40.718Z,0.80
2023-01-29T21:29:42.450Z,0.50
2023-01-29T21:34:44.261Z,0.40
2023-01-29T21:39:46.065Z,0.40
2023-01-29T21:44:47.759Z,0.40
2023-01-29T21:49:49.490Z,0.40
2023-01-29T21:54:51.367Z,0.40
2023-01-29T21:59:57.686Z,0.30
2023-01-29T22:05:17.480Z,0.20
2023-01-29T22:10:21.027Z,0.10
2023-01-29T22:15:24.029Z,0.20
2023-01-29T22:20:30.139Z,0.30
2023-01-29T22:25:32.293Z,0.10
2023-01-29T22:30:35.063Z,0.10
2023-01-29T22:35:37.421Z,0.00
2023-01-29T22:40:39.213Z,0.10
2023-01-29T22:45:40.987Z,0.10
2023-01-29T22:50:42.703Z,0.10
2023-01-29T22:55:44.412Z,0.10
2023-01-29T23:00:50.934Z,0.20
2023-01-29T23:05:52.599Z,0.10
2023-01-29T23:10:54.307Z,-0.10
2023-01-29T23:15:59.641Z,-0.10
2023-01-29T23:21:01.349Z,-0.10
2023-01-29T23:26:24.365Z,0.00
2023-01-29T23:31:26.411Z,-0.20
2023-01-29T23:36:28.402Z,-0.20
2023-01-29T23:41:30.090Z,-0.10
2023-01-29T23:46:31.869Z,-0.20
2023-01-29T23:51:33.559Z,-0.40
2023-01-29T23:56:35.267Z,-0.30
